Decoded Metar for KCLK (CLINTON in OK, USA) (IATA:CLK) | Meteo·Mobile Aviation Weather
aviador You're here:

KCLK Decoded Metar

CLINTON in OK, USA
Report Time2019-07-16 10:15:00
UTC Time2019-07-16 10:21:44
Flight Rules vfr VFR
Wind130° at 05 kt
W.Decomp.*RWY 13: 5.0 kt HW 0.6 kt LCW
RWY 17: 3.4 kt HW 3.7 kt LCW
Visibility9999 m
Phenomena:N/A
Clouds:N/A
Expected CloudBase > 1,600 ft AGL from Temp-Dew spread
CeilingNone
Temp22°C (ISA +10)
Dew Point18°C (78% RH)
QNH1014 hPa
Density Alt3,048 ft
Elevation1,614 ft
Report Wrong Elevation
Raw Report
KCLK 161015Z AUTO 13005KT 10SM CLR 22/18 A2993 RMK AO2=

Extra information for KCLK:More info

Metar Taf Metar & Taf Last 4 Metars F.Rules Stats Wind Profile Meteogram Temp Stats Airport Information Weather charts Add Link Nearby VenuesMetar ALERT Operation Metar Decoded Social comments

AIRNAV info for KCLK